Time;durP1;ratioP1;P1;durP2;ratioP2;P2;SDS_P1;SDS_P2;PMS_P1;PMS_P2;Temp;Humidity;BMP_temperature;BMP_pressure;BME280_temperature;BME280_humidity;BME280_pressure;Samples;Min_cycle;Max_cycle;Signal;HPM_P1;HPM_P2
2022/09/17 00:00:39;;;;;;;0.45;0.20;;;10.40;99.90;;;;;;5011591;28;20060;-87
2022/09/17 00:03:05;;;;;;;0.45;0.20;;;10.40;99.90;;;;;;5010056;28;20026;-87
2022/09/17 00:05:31;;;;;;;0.10;0.10;;;10.40;99.90;;;;;;5010285;28;20026;-87
2022/09/17 00:07:57;;;;;;;0.32;0.00;;;10.40;99.90;;;;;;5010506;28;20117;-87
2022/09/17 00:10:23;;;;;;;1.15;0.13;;;10.60;99.90;;;;;;5011854;28;20037;-87
2022/09/17 00:12:50;;;;;;;0.20;0.10;;;10.20;99.90;;;;;;5008250;28;20120;-87
2022/09/17 00:15:16;;;;;;;0.20;0.10;;;10.30;99.90;;;;;;5007809;28;20687;-87
2022/09/17 00:17:42;;;;;;;0.38;0.10;;;10.40;99.90;;;;;;5012107;28;20478;-87
2022/09/17 00:20:16;;;;;;;1.95;0.10;;;10.30;99.90;;;;;;5009625;28;20026;-87
2022/09/17 00:22:42;;;;;;;0.75;0.22;;;10.30;99.90;;;;;;5011296;28;20053;-89
2022/09/17 00:25:08;;;;;;;0.50;0.20;;;10.20;99.90;;;;;;5009425;28;20390;-87
2022/09/17 00:27:33;;;;;;;0.30;0.10;;;10.20;99.90;;;;;;5012693;28;20029;-88
2022/09/17 00:29:59;;;;;;;0.52;0.10;;;10.20;99.90;;;;;;5009878;28;20129;-87
2022/09/17 00:32:26;;;;;;;0.40;0.22;;;10.30;99.90;;;;;;5011439;28;20036;-87
2022/09/17 00:34:52;;;;;;;0.35;0.10;;;10.20;99.90;;;;;;5010856;28;20048;-88
2022/09/17 00:37:20;;;;;;;0.50;0.13;;;10.00;99.90;;;;;;5009788;28;20553;-87
2022/09/17 00:39:49;;;;;;;2.08;0.20;;;10.00;99.90;;;;;;5011152;28;20018;-87
2022/09/17 00:42:18;;;;;;;0.00;0.00;;;10.30;99.90;;;;;;5010441;28;20522;-87
2022/09/17 00:44:48;;;;;;;0.20;0.10;;;9.90;99.90;;;;;;5010220;28;20398;-88
2022/09/17 00:47:19;;;;;;;0.47;0.10;;;10.10;99.90;;;;;;5012062;28;20022;-87
2022/09/17 00:49:46;;;;;;;0.50;0.13;;;10.00;99.90;;;;;;5015054;28;20052;-87
2022/09/17 00:52:19;;;;;;;0.40;0.10;;;10.10;99.90;;;;;;5015063;28;20277;-87
2022/09/17 00:54:53;;;;;;;0.43;0.20;;;10.00;99.90;;;;;;5012297;28;20034;-87
2022/09/17 00:57:18;;;;;;;0.15;0.10;;;10.10;99.90;;;;;;5013118;28;20458;-86
2022/09/17 00:59:44;;;;;;;0.68;0.30;;;10.10;99.90;;;;;;5020920;28;20109;-88
2022/09/17 01:02:10;;;;;;;0.77;0.20;;;10.10;99.90;;;;;;5015034;28;20022;-87
2022/09/17 01:04:36;;;;;;;0.40;0.30;;;10.10;99.90;;;;;;5014120;28;20033;-87
2022/09/17 01:07:34;;;;;;;0.70;0.17;;;10.10;99.90;;;;;;5013670;28;20038;-87
2022/09/17 01:10:37;;;;;;;0.22;0.10;;;10.20;99.90;;;;;;5013502;28;20113;-87
2022/09/17 01:13:23;;;;;;;4.13;0.30;;;10.20;99.90;;;;;;5012998;28;20038;-87
2022/09/17 01:16:18;;;;;;;0.93;0.20;;;10.10;99.90;;;;;;5012649;28;20159;-87
2022/09/17 01:19:07;;;;;;;1.35;0.20;;;10.20;99.90;;;;;;5004681;28;20030;-87
2022/09/17 01:21:50;;;;;;;0.47;0.20;;;10.10;99.90;;;;;;5008512;28;20022;-87
2022/09/17 01:24:51;;;;;;;0.95;0.20;;;10.00;99.90;;;;;;5008106;28;20029;-87
2022/09/17 01:27:38;;;;;;;0.65;0.28;;;10.00;99.90;;;;;;4971794;28;20405;-87
2022/09/17 01:30:31;;;;;;;1.80;0.20;;;9.90;99.90;;;;;;5012594;28;20029;-87
2022/09/17 01:33:20;;;;;;;0.30;0.20;;;9.80;99.90;;;;;;5012785;28;20517;-87
2022/09/17 01:36:04;;;;;;;0.55;0.20;;;9.90;99.90;;;;;;5008015;28;20091;-87
2022/09/17 01:38:49;;;;;;;2.83;0.32;;;9.90;99.90;;;;;;5013584;28;20057;-87
2022/09/17 01:41:32;;;;;;;0.40;0.20;;;9.80;99.90;;;;;;5007560;28;20471;-87
2022/09/17 01:44:16;;;;;;;0.32;0.20;;;9.70;99.90;;;;;;5006079;28;20030;-87
2022/09/17 01:47:03;;;;;;;0.32;0.20;;;9.70;99.90;;;;;;5012048;28;20022;-88
2022/09/17 01:49:36;;;;;;;0.68;0.17;;;9.70;99.90;;;;;;5012242;28;20022;-87
2022/09/17 01:52:06;;;;;;;0.80;0.25;;;9.80;99.90;;;;;;5012034;28;20022;-88
2022/09/17 01:54:37;;;;;;;0.22;0.10;;;10.70;99.90;;;;;;5010609;28;20082;-87
2022/09/17 01:57:15;;;;;;;0.50;0.22;;;9.80;99.90;;;;;;5012890;28;20029;-88
2022/09/17 01:59:52;;;;;;;1.10;0.30;;;9.80;99.90;;;;;;5009140;28;20047;-87
2022/09/17 02:02:35;;;;;;;1.08;0.35;;;9.80;99.90;;;;;;5012107;28;20029;-87
2022/09/17 02:05:36;;;;;;;0.45;0.20;;;9.80;99.90;;;;;;5002142;28;20038;-88
2022/09/17 02:08:09;;;;;;;1.90;0.20;;;10.30;99.90;;;;;;4980972;28;20113;-88
2022/09/17 02:10:43;;;;;;;0.77;0.70;;;9.80;99.90;;;;;;5004027;28;20601;-88
2022/09/17 02:13:25;;;;;;;0.60;0.20;;;9.60;99.90;;;;;;5006673;28;20076;-87
2022/09/17 02:15:58;;;;;;;0.70;0.20;;;9.90;99.90;;;;;;5014121;28;20046;-87
2022/09/17 02:18:53;;;;;;;0.88;0.30;;;9.80;99.90;;;;;;5012535;28;20495;-88
2022/09/17 02:21:53;;;;;;;2.80;0.30;;;9.90;99.90;;;;;;5009527;28;20052;-87
2022/09/17 02:24:23;;;;;;;2.85;0.60;;;9.90;99.90;;;;;;4989831;28;20038;-87
2022/09/17 02:27:00;;;;;;;0.80;0.20;;;10.40;99.90;;;;;;5010386;28;20053;-88
2022/09/17 02:29:35;;;;;;;0.90;0.30;;;9.80;99.90;;;;;;5010087;28;20080;-87
2022/09/17 02:32:01;;;;;;;1.75;0.35;;;9.80;99.90;;;;;;5007875;28;20045;-88
2022/09/17 02:34:28;;;;;;;1.55;0.30;;;9.40;99.90;;;;;;5003662;28;20028;-88
2022/09/17 02:36:55;;;;;;;2.10;0.60;;;9.70;99.90;;;;;;5012440;28;20495;-88
2022/09/17 02:39:21;;;;;;;0.47;0.20;;;9.80;99.90;;;;;;5012156;28;20075;-88
2022/09/17 02:42:14;;;;;;;3.42;0.20;;;9.80;99.90;;;;;;5007727;28;20022;-87
2022/09/17 02:45:02;;;;;;;1.58;0.20;;;9.80;99.90;;;;;;5008989;28;20486;-87
2022/09/17 02:47:37;;;;;;;0.30;0.20;;;9.80;99.90;;;;;;5007362;28;20021;-88
2022/09/17 02:50:33;;;;;;;2.55;0.20;;;9.80;99.90;;;;;;5004491;28;20029;-87
2022/09/17 02:53:23;;;;;;;0.82;0.20;;;9.80;99.90;;;;;;5001157;28;20113;-88
2022/09/17 02:56:07;;;;;;;1.17;0.30;;;9.90;99.90;;;;;;5011321;28;20027;-88
2022/09/17 02:58:40;;;;;;;0.55;0.20;;;9.80;99.90;;;;;;5011911;28;20025;-87
2022/09/17 03:01:09;;;;;;;;;;;9.80;99.90;;;;;;4996107;28;20026;-88
2022/09/17 03:03:38;;;;;;;2.17;0.20;;;9.80;99.90;;;;;;5027612;28;19916;-88
2022/09/17 03:06:05;;;;;;;0.35;0.10;;;9.80;99.90;;;;;;5015199;28;20022;-87
2022/09/17 03:08:40;;;;;;;1.45;0.25;;;9.80;99.90;;;;;;5013364;28;20062;-88
2022/09/17 03:11:08;;;;;;;1.45;0.30;;;9.70;99.90;;;;;;5009674;28;20034;-88
2022/09/17 03:13:35;;;;;;;0.55;0.20;;;9.60;99.90;;;;;;5012742;28;20026;-87
2022/09/17 03:16:02;;;;;;;0.68;0.17;;;9.50;99.90;;;;;;5014332;28;20852;-88
2022/09/17 03:18:27;;;;;;;1.25;0.30;;;9.90;99.90;;;;;;5017528;28;20022;-88
2022/09/17 03:20:53;;;;;;;1.35;0.25;;;9.50;99.90;;;;;;5009090;28;20419;-88
2022/09/17 03:23:19;;;;;;;0.75;0.30;;;10.10;99.90;;;;;;5016018;28;20443;-87
2022/09/17 03:25:50;;;;;;;3.15;0.43;;;10.20;99.90;;;;;;5006950;28;20108;-88
2022/09/17 03:28:17;;;;;;;2.47;0.20;;;9.70;99.90;;;;;;5010152;28;20094;-88
2022/09/17 03:30:44;;;;;;;2.00;0.40;;;10.20;99.90;;;;;;5016836;28;20030;-88
2022/09/17 03:33:09;;;;;;;0.40;0.25;;;9.60;99.90;;;;;;5009645;28;20026;-88
2022/09/17 03:35:35;;;;;;;2.38;0.40;;;9.40;99.90;;;;;;5013084;28;20014;-88
2022/09/17 03:38:01;;;;;;;1.00;0.20;;;9.40;99.90;;;;;;5015347;28;20018;-88
2022/09/17 03:40:26;;;;;;;0.30;0.10;;;9.30;99.90;;;;;;5015848;28;20022;-88
2022/09/17 03:42:55;;;;;;;0.80;0.20;;;9.50;99.90;;;;;;5011577;28;20558;-88
2022/09/17 03:45:21;;;;;;;1.45;0.45;;;9.60;99.90;;;;;;5009528;28;20032;-88
2022/09/17 03:47:46;;;;;;;1.02;0.40;;;9.50;99.90;;;;;;5012308;28;20030;-88
2022/09/17 03:50:12;;;;;;;2.40;0.35;;;9.50;99.90;;;;;;5012781;28;20113;-88
2022/09/17 03:52:38;;;;;;;2.38;0.17;;;9.70;99.90;;;;;;5012320;28;20026;-89
2022/09/17 03:55:06;;;;;;;0.40;0.15;;;9.30;99.90;;;;;;5037448;28;20018;-88
2022/09/17 03:57:32;;;;;;;1.02;0.30;;;9.40;99.90;;;;;;5012700;28;20099;-90
2022/09/17 03:59:57;;;;;;;0.95;0.63;;;9.40;99.90;;;;;;5006555;28;20050;-88
2022/09/17 04:02:23;;;;;;;0.65;0.25;;;9.90;99.90;;;;;;5011272;28;20518;-88
2022/09/17 04:04:49;;;;;;;0.70;0.30;;;9.40;99.90;;;;;;5010109;28;20109;-88
2022/09/17 04:07:14;;;;;;;0.45;0.25;;;9.70;99.90;;;;;;5015335;28;20030;-88
2022/09/17 04:09:40;;;;;;;1.00;0.38;;;9.40;99.90;;;;;;4995233;28;20060;-88
2022/09/17 04:12:05;;;;;;;1.17;0.20;;;9.40;99.90;;;;;;4998180;28;20068;-88
2022/09/17 04:14:31;;;;;;;0.60;0.22;;;9.40;99.90;;;;;;4998072;28;20384;-88
2022/09/17 04:16:57;;;;;;;1.52;0.47;;;9.40;99.90;;;;;;5002036;28;20026;-88
2022/09/17 04:19:23;;;;;;;0.90;0.20;;;9.40;99.90;;;;;;5007466;28;20105;-89
2022/09/17 04:21:49;;;;;;;1.00;0.30;;;9.60;99.90;;;;;;5013785;28;20054;-88
2022/09/17 04:24:15;;;;;;;1.25;0.32;;;9.40;99.90;;;;;;5006325;28;20516;-88
2022/09/17 04:26:41;;;;;;;1.33;0.28;;;9.40;99.90;;;;;;5016520;28;20512;-87
2022/09/17 04:29:06;;;;;;;0.60;0.32;;;9.30;99.90;;;;;;5006458;28;20072;-88
2022/09/17 04:31:32;;;;;;;1.77;0.20;;;9.30;99.90;;;;;;5013814;28;20029;-88
2022/09/17 04:33:58;;;;;;;0.63;0.10;;;9.30;99.90;;;;;;5006354;28;20543;-88
2022/09/17 04:36:25;;;;;;;0.80;0.10;;;9.30;99.90;;;;;;5014149;28;20030;-87
2022/09/17 04:38:51;;;;;;;2.08;0.10;;;9.40;99.90;;;;;;5014050;28;20402;-89
2022/09/17 04:41:16;;;;;;;3.28;0.30;;;9.40;99.90;;;;;;5015691;28;20032;-88
2022/09/17 04:43:42;;;;;;;2.92;0.43;;;9.30;99.90;;;;;;5014173;28;20446;-88
2022/09/17 04:46:07;;;;;;;0.45;0.20;;;9.30;99.90;;;;;;5010307;28;20442;-88
2022/09/17 04:48:33;;;;;;;1.30;0.40;;;9.30;99.90;;;;;;5013738;28;20029;-88
2022/09/17 04:50:59;;;;;;;2.70;0.22;;;9.30;99.90;;;;;;5012835;28;20033;-87
2022/09/17 04:53:24;;;;;;;1.45;0.38;;;9.30;99.90;;;;;;5014245;28;20033;-88
2022/09/17 04:55:59;;;;;;;0.80;0.20;;;9.40;99.90;;;;;;5006837;28;20026;-88
2022/09/17 04:58:25;;;;;;;0.88;0.20;;;9.30;99.90;;;;;;5009583;28;20018;-88
2022/09/17 05:00:51;;;;;;;0.40;0.20;;;9.30;99.90;;;;;;5012002;28;20113;-87
2022/09/17 05:03:17;;;;;;;0.20;0.10;;;9.40;99.90;;;;;;5023549;28;20376;-88
2022/09/17 05:05:43;;;;;;;1.48;0.20;;;9.30;99.90;;;;;;5010339;28;20114;-88
2022/09/17 05:08:08;;;;;;;0.77;0.10;;;9.30;99.90;;;;;;5014361;28;20025;-88
2022/09/17 05:10:34;;;;;;;2.45;0.35;;;9.30;99.90;;;;;;5012400;28;20117;-88
2022/09/17 05:12:59;;;;;;;1.20;0.30;;;9.30;99.90;;;;;;5010851;28;20029;-88
2022/09/17 05:15:26;;;;;;;0.82;0.40;;;9.30;99.90;;;;;;5008836;28;20026;-88
2022/09/17 05:17:52;;;;;;;2.38;0.40;;;9.40;99.90;;;;;;5012655;28;20042;-88
2022/09/17 05:20:18;;;;;;;1.95;0.30;;;9.40;99.90;;;;;;5011756;28;20035;-88
2022/09/17 05:22:51;;;;;;;0.70;0.25;;;9.30;99.90;;;;;;5013494;28;20410;-88
2022/09/17 05:25:22;;;;;;;1.90;0.30;;;9.40;99.90;;;;;;5012291;28;20128;-88
2022/09/17 05:27:48;;;;;;;1.60;0.47;;;9.40;99.90;;;;;;5010733;28;20045;-87
2022/09/17 05:30:14;;;;;;;2.03;0.30;;;9.40;99.90;;;;;;5006393;28;20026;-87
2022/09/17 05:32:39;;;;;;;1.63;0.30;;;9.30;99.90;;;;;;5006429;28;20033;-88
2022/09/17 05:35:07;;;;;;;1.42;0.20;;;9.60;99.90;;;;;;5011298;28;20042;-87
2022/09/17 05:37:32;;;;;;;4.50;0.32;;;9.30;99.90;;;;;;5010239;28;20425;-88
2022/09/17 05:39:58;;;;;;;0.22;0.20;;;9.30;99.90;;;;;;5011574;28;20109;-87
2022/09/17 05:42:23;;;;;;;0.82;0.20;;;9.30;99.90;;;;;;5013980;28;20025;-88
2022/09/17 05:44:49;;;;;;;3.95;0.60;;;9.30;99.90;;;;;;5011147;28;20057;-87
2022/09/17 05:47:15;;;;;;;1.05;0.30;;;9.30;99.90;;;;;;5010245;28;20028;-88
2022/09/17 05:49:40;;;;;;;0.82;0.20;;;9.30;99.90;;;;;;5011819;28;20061;-87
2022/09/17 05:52:06;;;;;;;3.33;0.28;;;9.20;99.90;;;;;;5003931;28;20030;-87
2022/09/17 05:54:32;;;;;;;0.77;0.30;;;9.20;99.90;;;;;;5011813;28;20069;-87
2022/09/17 05:56:57;;;;;;;1.38;0.30;;;9.30;99.90;;;;;;5012339;28;20036;-87
2022/09/17 05:59:23;;;;;;;0.73;0.20;;;9.40;99.90;;;;;;5005399;28;20041;-87
2022/09/17 06:01:49;;;;;;;0.52;0.20;;;9.40;99.90;;;;;;5008424;28;20030;-86
2022/09/17 06:04:16;;;;;;;2.40;0.40;;;9.70;99.90;;;;;;5006261;28;20046;-87
2022/09/17 06:06:42;;;;;;;1.33;0.40;;;9.50;99.90;;;;;;5004671;28;20394;-87
2022/09/17 06:09:08;;;;;;;2.40;0.70;;;9.50;99.90;;;;;;5011252;28;20033;-87
2022/09/17 06:11:34;;;;;;;1.52;0.63;;;9.70;99.90;;;;;;5010729;28;20030;-86
2022/09/17 06:14:02;;;;;;;1.90;0.60;;;9.80;99.90;;;;;;5008934;28;20501;-87
2022/09/17 06:16:28;;;;;;;1.45;0.43;;;9.90;99.90;;;;;;5010298;28;20061;-86
2022/09/17 06:18:53;;;;;;;1.17;0.50;;;10.00;99.90;;;;;;5011848;28;20435;-86
2022/09/17 06:21:23;;;;;;;0.22;0.15;;;10.40;99.90;;;;;;5007016;28;20510;-86
2022/09/17 06:23:51;;;;;;;0.60;0.20;;;10.00;99.90;;;;;;5002350;28;20034;-86
2022/09/17 06:26:17;;;;;;;0.90;0.30;;;10.40;99.90;;;;;;5011058;28;20022;-87
2022/09/17 06:28:43;;;;;;;0.80;0.30;;;10.00;99.90;;;;;;5011738;28;20037;-87
2022/09/17 06:31:10;;;;;;;2.72;0.43;;;10.10;99.90;;;;;;5011060;28;20029;-87
2022/09/17 06:33:39;;;;;;;0.57;0.25;;;10.10;99.90;;;;;;5010039;28;20022;-87
2022/09/17 06:36:07;;;;;;;1.48;0.40;;;10.20;99.90;;;;;;5012309;28;20406;-87
2022/09/17 06:38:34;;;;;;;0.80;0.30;;;10.20;99.90;;;;;;5006969;28;20105;-86
2022/09/17 06:41:00;;;;;;;2.00;0.30;;;10.20;99.90;;;;;;5009508;28;20471;-87
2022/09/17 06:43:26;;;;;;;1.92;0.60;;;10.20;99.90;;;;;;5007218;28;20028;-87
2022/09/17 06:45:57;;;;;;;1.42;0.40;;;10.30;99.90;;;;;;5005673;28;20423;-87
2022/09/17 06:48:27;;;;;;;1.63;0.40;;;10.40;99.90;;;;;;5001554;28;20462;-87
2022/09/17 06:50:53;;;;;;;1.08;0.30;;;10.10;99.90;;;;;;5007625;28;20053;-87
2022/09/17 06:53:23;;;;;;;5.95;0.80;;;10.20;99.90;;;;;;5009574;28;20022;-87
2022/09/17 06:55:49;;;;;;;1.05;0.55;;;10.30;99.90;;;;;;5007124;28;20026;-86
2022/09/17 06:58:14;;;;;;;1.40;0.35;;;10.30;99.90;;;;;;5010915;28;20109;-87
2022/09/17 07:00:41;;;;;;;2.97;0.60;;;10.40;99.90;;;;;;5009939;28;20469;-87
2022/09/17 07:03:08;;;;;;;1.77;0.40;;;10.40;99.90;;;;;;5006233;28;20018;-86
2022/09/17 07:05:33;;;;;;;3.10;0.60;;;10.70;99.90;;;;;;5008979;28;20014;-87
2022/09/17 07:08:02;;;;;;;2.13;0.43;;;10.50;99.90;;;;;;5011559;28;20443;-87
2022/09/17 07:10:30;;;;;;;2.15;0.30;;;10.30;99.90;;;;;;5004269;28;20077;-87
2022/09/17 07:12:56;;;;;;;3.92;0.38;;;10.40;99.90;;;;;;5006582;28;20656;-87
2022/09/17 07:15:22;;;;;;;0.88;0.40;;;10.30;99.90;;;;;;5009454;28;20026;-87
2022/09/17 07:17:48;;;;;;;0.32;0.20;;;10.30;99.90;;;;;;5010467;28;20058;-88
2022/09/17 07:20:14;;;;;;;5.20;0.60;;;10.10;99.90;;;;;;5009689;28;20473;-87
2022/09/17 07:22:39;;;;;;;3.80;0.30;;;10.10;99.90;;;;;;5008978;28;20028;-88
2022/09/17 07:25:06;;;;;;;0.60;0.30;;;10.10;99.90;;;;;;5011271;28;20034;-88
2022/09/17 07:27:32;;;;;;;2.15;0.20;;;9.90;99.90;;;;;;5008218;28;20030;-88
2022/09/17 07:29:58;;;;;;;1.13;0.30;;;10.00;99.90;;;;;;5008843;28;20042;-88
2022/09/17 07:32:27;;;;;;;0.85;0.30;;;9.90;99.90;;;;;;5009310;28;20079;-88
2022/09/17 07:34:57;;;;;;;0.70;0.30;;;9.80;99.90;;;;;;5006269;28;20076;-87
2022/09/17 07:37:25;;;;;;;1.90;0.40;;;9.80;99.90;;;;;;4991758;28;20041;-88
2022/09/17 07:39:58;;;;;;;1.38;0.40;;;9.80;99.90;;;;;;5008223;28;20398;-87
2022/09/17 07:42:38;;;;;;;0.32;0.30;;;9.70;99.90;;;;;;5005684;28;20456;-88
2022/09/17 07:45:16;;;;;;;1.85;0.45;;;10.10;99.90;;;;;;5008280;28;20061;-87
2022/09/17 07:51:22;;;;;;;0.60;0.20;;;9.90;99.90;;;;;;5011788;28;20048;-89
2022/09/17 08:04:17;;;;;;;0.65;0.30;;;9.90;99.90;;;;;;5012347;28;20030;-88
2022/09/17 08:11:00;;;;;;;;;;;;;;;;;;;;;
2022/09/17 08:14:16;;;;;;;2.45;0.30;;;9.70;99.90;;;;;;5006881;28;20038;-88
2022/09/17 08:17:29;;;;;;;0.77;0.22;;;9.90;99.90;;;;;;5003958;28;20033;-88
2022/09/17 08:34:57;;;;;;;0.93;0.30;;;10.10;99.90;;;;;;4938914;29;20461;-87
2022/09/17 08:37:41;;;;;;;2.30;0.60;;;10.20;99.90;;;;;;4919026;29;20035;-87
2022/09/17 08:40:28;;;;;;;2.40;0.70;;;10.70;99.90;;;;;;4969070;28;20042;-88
2022/09/17 08:43:07;;;;;;;2.15;0.47;;;10.70;99.90;;;;;;4985070;28;20545;-87
2022/09/17 08:45:47;;;;;;;2.85;0.30;;;10.40;99.90;;;;;;4978317;28;20112;-88
2022/09/17 08:48:14;;;;;;;0.60;0.40;;;10.90;99.90;;;;;;4971236;28;20097;-87
2022/09/17 08:54:41;;;;;;;2.22;0.43;;;10.80;99.90;;;;;;5006632;28;20033;-87
2022/09/17 09:07:43;;;;;;;2.17;0.40;;;11.40;99.90;;;;;;4992832;28;20048;-89
2022/09/17 09:10:37;;;;;;;4.38;0.52;;;11.60;99.90;;;;;;4978273;28;20027;-87
2022/09/17 09:13:06;;;;;;;2.17;0.52;;;11.90;99.90;;;;;;4977406;28;20038;-87
2022/09/17 09:16:12;;;;;;;1.55;0.30;;;11.80;99.90;;;;;;4978448;28;20022;-89
2022/09/17 09:19:03;;;;;;;2.78;0.45;;;11.80;99.90;;;;;;4975784;28;20030;-88
2022/09/17 09:21:43;;;;;;;2.22;0.40;;;12.00;99.90;;;;;;4971201;28;20034;-88
2022/09/17 09:24:28;;;;;;;0.85;0.25;;;11.90;99.90;;;;;;4979059;28;20570;-88
2022/09/17 09:27:17;;;;;;;1.10;0.30;;;12.00;99.90;;;;;;4992037;28;20030;-88
2022/09/17 09:30:03;;;;;;;2.65;0.45;;;12.10;99.90;;;;;;4979558;28;20050;-88
2022/09/17 09:32:51;;;;;;;1.67;0.30;;;12.20;99.90;;;;;;4974177;28;20032;-87
2022/09/17 09:35:31;;;;;;;1.85;0.30;;;12.50;99.90;;;;;;4972321;28;20102;-89
2022/09/17 09:42:34;;;;;;;;;;;12.70;99.90;;;;;;5425946;23;20498;-89
2022/09/17 09:48:38;;;;;;;4.15;0.85;;;12.80;99.90;;;;;;4985083;28;20048;-90
2022/09/17 09:55:16;;;;;;;1.13;0.22;;;12.80;99.90;;;;;;5022470;28;20037;-90
2022/09/17 09:57:47;;;;;;;0.70;0.20;;;12.70;99.90;;;;;;5031141;28;20041;-83
2022/09/17 10:00:30;;;;;;;1.73;0.40;;;12.70;99.90;;;;;;5012623;28;20152;-83
2022/09/17 10:03:11;;;;;;;5.63;0.75;;;12.60;99.90;;;;;;5031689;28;20148;-83
2022/09/17 10:05:37;;;;;;;3.10;0.40;;;12.40;99.90;;;;;;5032902;28;20520;-84
2022/09/17 10:08:13;;;;;;;1.67;0.40;;;12.10;99.90;;;;;;5027858;28;20037;-83
2022/09/17 10:10:58;;;;;;;1.73;0.45;;;12.00;99.90;;;;;;5032835;28;20025;-82
2022/09/17 10:13:26;;;;;;;3.35;0.40;;;11.90;99.90;;;;;;5031422;28;20022;-84
2022/09/17 10:15:52;;;;;;;2.67;0.25;;;11.90;99.90;;;;;;5031170;28;20104;-84
2022/09/17 10:18:23;;;;;;;2.03;0.47;;;12.00;99.90;;;;;;5031938;28;20042;-82
2022/09/17 10:20:58;;;;;;;1.08;0.50;;;12.10;99.90;;;;;;5016088;28;20029;-83
2022/09/17 10:23:27;;;;;;;2.25;0.40;;;12.30;99.90;;;;;;5029671;28;20549;-83
2022/09/17 10:25:54;;;;;;;1.73;0.57;;;12.40;99.90;;;;;;5031157;28;20017;-83
2022/09/17 10:28:48;;;;;;;1.73;0.47;;;12.80;99.90;;;;;;5032205;28;20014;-83
2022/09/17 10:31:14;;;;;;;0.73;0.30;;;13.10;99.90;;;;;;5011731;28;20036;-84
2022/09/17 10:34:03;;;;;;;0.65;0.28;;;13.40;99.90;;;;;;5013879;28;20576;-83
2022/09/17 10:36:42;;;;;;;2.40;0.40;;;13.50;99.90;;;;;;5029778;28;20021;-83
2022/09/17 10:39:31;;;;;;;1.52;0.40;;;13.70;99.90;;;;;;5007765;28;20036;-83
2022/09/17 10:42:04;;;;;;;1.63;0.38;;;13.70;99.90;;;;;;5029688;28;20022;-83
2022/09/17 10:44:33;;;;;;;3.17;0.73;;;13.90;99.90;;;;;;5030607;28;20441;-83
2022/09/17 10:47:12;;;;;;;3.30;0.40;;;14.30;99.90;;;;;;5030326;28;20025;-84
2022/09/17 10:49:55;;;;;;;1.55;0.40;;;14.20;99.90;;;;;;5010071;28;20026;-83
2022/09/17 10:52:31;;;;;;;0.95;0.20;;;14.50;99.90;;;;;;5016725;28;20080;-82
2022/09/17 10:55:15;;;;;;;0.70;0.25;;;14.70;99.90;;;;;;5022849;23;20417;-83
2022/09/17 10:58:02;;;;;;;1.25;0.60;;;14.60;99.90;;;;;;5010213;28;20057;-82
2022/09/17 11:00:39;;;;;;;0.20;0.10;;;14.80;99.90;;;;;;5006807;28;20113;-82
2022/09/17 11:03:46;;;;;;;4.93;0.38;;;14.80;99.90;;;;;;5026374;28;20033;-83
2022/09/17 11:06:21;;;;;;;1.30;0.10;;;15.10;99.90;;;;;;4981170;28;20038;-82
2022/09/17 11:08:56;;;;;;;0.60;0.25;;;15.50;99.90;;;;;;5008177;28;20041;-82
2022/09/17 11:11:28;;;;;;;0.98;0.20;;;15.80;99.90;;;;;;5012829;28;20034;-82
2022/09/17 11:14:08;;;;;;;2.38;0.50;;;16.00;99.90;;;;;;5016630;28;20120;-83
2022/09/17 11:16:52;;;;;;;1.55;0.35;;;16.00;99.90;;;;;;5007618;28;20061;-82
2022/09/17 11:19:20;;;;;;;2.80;0.20;;;16.10;99.90;;;;;;5009540;28;20073;-83
2022/09/17 11:22:17;;;;;;;1.50;0.50;;;16.10;99.90;;;;;;5010237;28;20030;-82
2022/09/17 11:24:59;;;;;;;0.98;0.10;;;16.20;99.90;;;;;;5008527;28;20033;-82
2022/09/17 11:27:31;;;;;;;0.85;0.22;;;16.40;99.90;;;;;;5001590;28;20050;-82
2022/09/17 11:30:15;;;;;;;2.20;0.40;;;16.20;99.90;;;;;;4993037;28;20033;-82
2022/09/17 11:33:11;;;;;;;1.55;0.32;;;16.00;99.90;;;;;;5009448;28;20062;-82
2022/09/17 11:35:44;;;;;;;0.85;0.30;;;15.80;99.90;;;;;;5005305;28;20042;-83
2022/09/17 11:38:25;;;;;;;0.73;0.20;;;16.00;99.90;;;;;;5011523;28;20038;-83
2022/09/17 11:41:18;;;;;;;2.28;0.20;;;16.00;99.90;;;;;;5009488;28;20057;-83
2022/09/17 11:44:03;;;;;;;0.22;0.10;;;16.10;99.90;;;;;;5004477;28;20023;-83
2022/09/17 11:46:37;;;;;;;0.40;0.10;;;16.20;99.90;;;;;;4990673;28;20042;-82
2022/09/17 11:49:40;;;;;;;0.47;0.10;;;16.10;99.90;;;;;;4991782;28;20022;-82
2022/09/17 11:52:31;;;;;;;0.85;0.13;;;16.20;99.90;;;;;;5007970;28;20022;-82
2022/09/17 11:55:17;;;;;;;0.50;0.10;;;16.10;99.90;;;;;;5002424;28;20042;-82
2022/09/17 11:57:47;;;;;;;1.00;0.28;;;15.90;99.90;;;;;;5003717;28;20037;-80
2022/09/17 12:00:17;;;;;;;0.47;0.10;;;15.80;99.90;;;;;;4989311;28;20029;-80
2022/09/17 12:03:06;;;;;;;0.77;0.17;;;15.50;99.90;;;;;;4982539;28;20050;-79
2022/09/17 12:05:50;;;;;;;2.22;0.20;;;15.50;99.90;;;;;;5006865;28;20222;-78
2022/09/17 12:08:25;;;;;;;0.80;0.20;;;15.40;99.90;;;;;;5007522;28;20026;-79
2022/09/17 12:11:03;;;;;;;1.08;0.30;;;15.70;99.90;;;;;;5005817;28;20030;-80
2022/09/17 12:13:35;;;;;;;0.80;0.20;;;16.20;99.90;;;;;;5005306;28;20682;-80
2022/09/17 12:16:11;;;;;;;1.35;0.15;;;16.30;99.90;;;;;;4980131;28;20113;-79
2022/09/17 12:18:42;;;;;;;2.85;0.20;;;16.00;99.90;;;;;;5001966;28;20037;-80
2022/09/17 12:21:12;;;;;;;0.32;0.25;;;15.80;99.90;;;;;;5006993;28;20034;-79
2022/09/17 12:24:19;;;;;;;0.50;0.20;;;15.50;99.90;;;;;;5010274;28;20042;-82
2022/09/17 12:27:14;;;;;;;2.55;0.13;;;15.20;99.90;;;;;;4992514;28;20321;-82
2022/09/17 12:30:05;;;;;;;1.88;0.17;;;14.70;99.90;;;;;;4987727;28;20399;-80
2022/09/17 12:32:40;;;;;;;0.85;0.22;;;14.50;99.90;;;;;;5006144;28;20030;-82
2022/09/17 12:35:30;;;;;;;0.73;0.20;;;14.20;99.90;;;;;;5009341;28;20355;-82
2022/09/17 12:38:08;;;;;;;1.17;0.15;;;14.10;99.90;;;;;;4992425;28;20045;-80
2022/09/17 12:40:59;;;;;;;0.60;0.10;;;14.00;99.90;;;;;;5019133;28;20037;-80
2022/09/17 12:43:58;;;;;;;1.38;0.13;;;14.00;99.90;;;;;;4993035;28;20037;-79
2022/09/17 12:46:46;;;;;;;0.85;0.20;;;14.10;99.90;;;;;;5010344;28;20026;-78
2022/09/17 12:49:36;;;;;;;2.47;0.28;;;14.40;99.90;;;;;;5013241;28;20025;-80
2022/09/17 12:52:29;;;;;;;0.35;0.20;;;14.50;99.90;;;;;;5012602;28;20031;-80
2022/09/17 12:55:24;;;;;;;0.30;0.10;;;14.30;99.90;;;;;;5012601;28;20030;-83
2022/09/17 12:58:05;;;;;;;2.35;0.28;;;13.90;99.90;;;;;;5011638;28;20379;-82
2022/09/17 13:00:38;;;;;;;0.52;0.22;;;13.50;99.90;;;;;;5010782;28;20023;-80
2022/09/17 13:03:29;;;;;;;0.77;0.15;;;13.30;99.90;;;;;;5010741;28;20077;-77
2022/09/17 13:06:28;;;;;;;0.70;0.40;;;13.30;99.90;;;;;;5007270;28;20037;-80
2022/09/17 13:08:57;;;;;;;0.50;0.10;;;13.00;99.90;;;;;;5019552;28;20042;-79
2022/09/17 13:11:55;;;;;;;1.90;0.20;;;12.90;99.90;;;;;;5015572;28;20117;-80
2022/09/17 13:14:46;;;;;;;0.38;0.22;;;12.70;99.90;;;;;;4986535;28;20050;-80
2022/09/17 13:17:31;;;;;;;1.63;0.50;;;12.30;99.90;;;;;;5005267;28;20447;-79
2022/09/17 13:20:28;;;;;;;1.13;0.10;;;12.00;99.90;;;;;;5004941;28;20050;-81
2022/09/17 13:22:56;;;;;;;1.67;0.50;;;11.70;99.90;;;;;;4975417;28;20129;-80
2022/09/17 13:25:24;;;;;;;1.80;0.20;;;11.60;99.90;;;;;;5005717;28;20025;-80
2022/09/17 13:28:05;;;;;;;0.10;0.10;;;11.40;99.90;;;;;;5002821;28;20446;-80
2022/09/17 13:30:55;;;;;;;0.63;0.13;;;11.40;99.90;;;;;;5005572;28;20033;-80
2022/09/17 13:33:59;;;;;;;0.20;0.13;;;11.50;99.90;;;;;;4991383;28;20030;-84
2022/09/17 13:36:35;;;;;;;0.13;0.10;;;11.60;99.90;;;;;;4985144;28;20030;-83
2022/09/17 13:39:02;;;;;;;0.43;0.10;;;11.70;99.90;;;;;;4987332;28;20352;-83
2022/09/17 13:41:31;;;;;;;0.77;0.20;;;11.80;99.90;;;;;;4987709;28;20049;-83
2022/09/17 13:43:57;;;;;;;0.22;0.17;;;12.10;99.90;;;;;;5005869;28;20014;-84
2022/09/17 13:46:24;;;;;;;0.10;0.10;;;12.50;99.90;;;;;;5006608;28;20031;-83
2022/09/17 13:49:15;;;;;;;0.20;0.10;;;12.90;99.90;;;;;;4994753;28;20088;-83
2022/09/17 13:51:42;;;;;;;1.20;0.10;;;13.40;99.90;;;;;;5012539;28;20102;-83
2022/09/17 13:54:09;;;;;;;1.10;0.10;;;13.60;99.90;;;;;;5005633;28;20050;-83
2022/09/17 13:56:45;;;;;;;0.77;0.20;;;14.00;99.90;;;;;;5006488;28;20025;-84
2022/09/17 13:59:10;;;;;;;0.60;0.10;;;14.30;99.90;;;;;;5008610;28;20026;-83
2022/09/17 14:01:55;;;;;;;0.38;0.20;;;14.30;99.90;;;;;;4990656;28;20690;-84
2022/09/17 14:04:32;;;;;;;1.35;0.25;;;14.10;99.90;;;;;;5006768;28;20030;-83
2022/09/17 14:06:58;;;;;;;2.20;0.20;;;14.60;99.90;;;;;;5009407;28;20433;-83
2022/09/17 14:09:51;;;;;;;0.77;0.10;;;15.10;99.90;;;;;;5006726;28;20045;-83
2022/09/17 14:12:49;;;;;;;0.65;0.10;;;15.60;99.90;;;;;;4983114;28;20038;-84
2022/09/17 14:15:39;;;;;;;0.30;0.10;;;15.80;99.90;;;;;;5006266;28;20014;-83
2022/09/17 14:18:27;;;;;;;0.10;0.10;;;15.90;99.90;;;;;;4992196;28;20027;-80
2022/09/17 14:21:11;;;;;;;0.10;0.10;;;15.80;99.90;;;;;;5012103;28;20022;-80
2022/09/17 14:23:48;;;;;;;0.57;0.15;;;15.70;99.90;;;;;;4984554;28;20038;-82
2022/09/17 14:26:26;;;;;;;0.35;0.10;;;15.70;99.90;;;;;;4988497;28;20018;-82
2022/09/17 14:29:28;;;;;;;0.10;0.10;;;16.00;99.90;;;;;;5010672;28;20031;-79
2022/09/17 14:31:55;;;;;;;0.50;0.10;;;15.60;99.90;;;;;;5006624;28;20026;-79